createdAt,value
2023-03-05T00:01:35.000Z,-5.94
2023-03-05T00:03:40.289Z,-5.96
2023-03-05T00:05:46.333Z,-5.94
2023-03-05T00:07:54.609Z,-5.91
2023-03-05T00:09:59.905Z,-5.91
2023-03-05T00:12:05.332Z,-5.83
2023-03-05T00:14:10.540Z,-5.81
2023-03-05T00:16:16.211Z,-5.8
2023-03-05T00:18:21.987Z,-5.76
2023-03-05T00:20:27.657Z,-5.76
2023-03-05T00:22:33.033Z,-5.83
2023-03-05T00:24:38.175Z,-5.79
2023-03-05T00:26:43.761Z,-5.69
2023-03-05T00:28:48.909Z,-5.5
2023-03-05T00:30:55.292Z,-5.4
2023-03-05T00:33:00.644Z,-5.42
2023-03-05T00:35:06.063Z,-5.4
2023-03-05T00:37:14.484Z,-5.47
2023-03-05T00:39:19.641Z,-5.51
2023-03-05T00:41:24.953Z,-5.55
2023-03-05T00:43:30.761Z,-5.45
2023-03-05T00:45:36.380Z,-5.35
2023-03-05T00:47:41.777Z,-5.04
2023-03-05T00:49:47.066Z,-5.13
2023-03-05T00:51:52.364Z,-5.18
2023-03-05T00:53:57.381Z,-5.04
2023-03-05T00:56:03.009Z,-4.86
2023-03-05T00:58:08.437Z,-4.97
2023-03-05T01:00:13.947Z,-4.94
2023-03-05T01:02:19.538Z,-5.03
2023-03-05T01:04:25.341Z,-5.12
2023-03-05T01:06:30.933Z,-5.09
2023-03-05T01:08:36.203Z,-5.22
2023-03-05T01:10:41.571Z,-5.34
2023-03-05T01:12:47.394Z,-5.42
2023-03-05T01:14:52.623Z,-5.47
2023-03-05T01:16:57.679Z,-5.39
2023-03-05T01:19:03.143Z,-5.31
2023-03-05T01:21:08.518Z,-5.39
2023-03-05T01:23:13.991Z,-5.46
2023-03-05T01:25:19.883Z,-5.52
2023-03-05T01:27:25.838Z,-5.49
2023-03-05T01:29:31.485Z,-5.56
2023-03-05T01:31:36.949Z,-5.54
2023-03-05T01:33:42.514Z,-5.44
2023-03-05T01:35:48.256Z,-5.28
2023-03-05T01:37:53.795Z,-5.32
2023-03-05T01:39:59.024Z,-5.41
2023-03-05T01:42:04.224Z,-5.49
2023-03-05T01:44:10.102Z,-5.53
2023-03-05T01:46:15.605Z,-5.47
2023-03-05T01:48:21.266Z,-5.38
2023-03-05T01:50:26.836Z,-5.01
2023-03-05T01:52:32.669Z,-4.93
2023-03-05T01:54:38.982Z,-4.96
2023-03-05T01:56:44.445Z,-4.88
2023-03-05T01:58:50.351Z,-4.79
2023-03-05T02:00:55.575Z,-4.81
2023-03-05T02:03:01.062Z,-4.91
2023-03-05T02:05:06.789Z,-4.98
2023-03-05T02:07:12.180Z,-4.88
2023-03-05T02:09:17.668Z,-4.61
2023-03-05T02:11:22.741Z,-4.67
2023-03-05T02:13:27.988Z,-4.76
2023-03-05T02:15:33.240Z,-4.81
2023-03-05T02:17:38.537Z,-4.92
2023-03-05T02:19:43.585Z,-5.06
2023-03-05T02:21:48.864Z,-5.13
2023-03-05T02:23:54.318Z,-5.21
2023-03-05T02:25:59.876Z,-5.27
2023-03-05T02:28:05.343Z,-5.27
2023-03-05T02:30:10.580Z,-5.4
2023-03-05T02:32:15.959Z,-5.48
2023-03-05T02:34:21.648Z,-5.53
2023-03-05T02:36:27.181Z,-5.43
2023-03-05T02:38:32.679Z,-5.32
2023-03-05T02:40:37.870Z,-5.35
2023-03-05T02:42:42.884Z,-5.34
2023-03-05T02:44:48.171Z,-5.3
2023-03-05T02:46:53.381Z,-5.33
2023-03-05T02:48:59.978Z,-5.4
2023-03-05T02:51:05.424Z,-5.39
2023-03-05T02:53:10.517Z,-5.31
2023-03-05T02:55:15.781Z,-5.35
2023-03-05T02:57:21.235Z,-5.33
2023-03-05T02:59:26.579Z,-5.3
2023-03-05T03:01:32.491Z,-5.25
2023-03-05T03:03:38.116Z,-5.14
2023-03-05T03:05:43.509Z,-5.19
2023-03-05T03:07:48.837Z,-5.11
2023-03-05T03:09:57.848Z,-5.13
2023-03-05T03:12:03.003Z,-5.11
2023-03-05T03:14:08.031Z,-5.16
2023-03-05T03:16:13.328Z,-5.18
2023-03-05T03:18:18.850Z,-5.14
2023-03-05T03:20:24.425Z,-5.07
2023-03-05T03:22:29.595Z,-5.1
2023-03-05T03:24:35.416Z,-5.01
2023-03-05T03:26:40.686Z,-5.06
2023-03-05T03:28:46.177Z,-4.95
2023-03-05T03:30:51.333Z,-5.07
2023-03-05T03:32:56.854Z,-5.15
2023-03-05T03:35:01.927Z,-5.26
2023-03-05T03:37:07.324Z,-5.26
2023-03-05T03:39:12.417Z,-5.19
2023-03-05T03:41:17.878Z,-5.26
2023-03-05T03:43:23.053Z,-5.32
2023-03-05T03:45:28.440Z,-5.22
2023-03-05T03:47:33.594Z,-5.19
2023-03-05T03:49:38.887Z,-5.24
2023-03-05T03:51:44.102Z,-5.09
2023-03-05T03:53:49.508Z,-5.17
2023-03-05T03:55:54.713Z,-5.29
2023-03-05T03:57:59.952Z,-5.4
2023-03-05T04:00:05.749Z,-5.44
2023-03-05T04:02:11.035Z,-5.43
2023-03-05T04:04:16.426Z,-5.45
2023-03-05T04:06:21.833Z,-5.49
2023-03-05T04:08:27.066Z,-5.31
2023-03-05T04:10:32.749Z,-5.37
2023-03-05T04:12:38.271Z,-5.47
2023-03-05T04:14:43.304Z,-5.46
2023-03-05T04:16:48.391Z,-5.34
2023-03-05T04:18:53.806Z,-5.36
2023-03-05T04:21:00.318Z,-5.32
2023-03-05T04:23:05.579Z,-5.32
2023-03-05T04:25:11.029Z,-5.08
2023-03-05T04:27:16.614Z,-5.04
2023-03-05T04:29:21.780Z,-5.05
2023-03-05T04:31:27.069Z,-5.14
2023-03-05T04:33:32.697Z,-5.15
2023-03-05T04:35:38.218Z,-4.96
2023-03-05T04:37:43.569Z,-4.92
2023-03-05T04:39:49.338Z,-4.95
2023-03-05T04:41:54.658Z,-4.9
2023-03-05T04:44:00.140Z,-4.83
2023-03-05T04:46:05.187Z,-4.81
2023-03-05T04:48:10.772Z,-4.73
2023-03-05T04:50:16.250Z,-4.67
2023-03-05T04:52:21.513Z,-4.67
2023-03-05T04:54:27.222Z,-4.67
2023-03-05T04:56:32.818Z,-4.58
2023-03-05T04:58:38.127Z,-4.5
2023-03-05T05:00:43.348Z,-4.42
2023-03-05T05:02:49.712Z,-4.44
2023-03-05T05:04:55.480Z,-4.38
2023-03-05T05:07:00.960Z,-4.33
2023-03-05T05:09:06.466Z,-4.21
2023-03-05T05:11:11.619Z,-4.17
2023-03-05T05:13:17.109Z,-4.18
2023-03-05T05:15:22.336Z,-4.2
2023-03-05T05:17:27.655Z,-4.22
2023-03-05T05:19:32.785Z,-4.19
2023-03-05T05:21:38.565Z,-4.17
2023-03-05T05:23:44.093Z,-4.12
2023-03-05T05:25:49.458Z,-4.13
2023-03-05T05:27:58.108Z,-4.07
2023-03-05T05:30:03.631Z,-4.05
2023-03-05T05:32:08.997Z,-4
2023-03-05T05:34:14.744Z,-4
2023-03-05T05:36:20.422Z,-3.97
2023-03-05T05:38:26.092Z,-3.93
2023-03-05T05:40:31.549Z,-3.83
2023-03-05T05:42:36.758Z,-3.77
2023-03-05T05:44:41.919Z,-3.75
2023-03-05T05:46:47.525Z,-3.71
2023-03-05T05:48:53.157Z,-3.65
2023-03-05T05:50:58.431Z,-3.61
2023-03-05T05:53:03.770Z,-3.6
2023-03-05T05:55:09.280Z,-3.55
2023-03-05T05:57:14.938Z,-3.52
2023-03-05T05:59:20.321Z,-3.51
2023-03-05T06:01:25.519Z,-3.5
2023-03-05T06:03:30.888Z,-3.49
2023-03-05T06:05:36.187Z,-3.49
2023-03-05T06:07:41.698Z,-3.44
2023-03-05T06:09:46.908Z,-3.41
2023-03-05T06:11:52.143Z,-3.41
2023-03-05T06:13:57.524Z,-3.38
2023-03-05T06:16:03.064Z,-3.36
2023-03-05T06:18:08.772Z,-3.3
2023-03-05T06:20:14.216Z,-3.25
2023-03-05T06:22:19.660Z,-3.17
2023-03-05T06:24:24.925Z,-3.12
2023-03-05T06:26:30.454Z,-3.07
2023-03-05T06:28:35.653Z,-3.03
2023-03-05T06:30:40.974Z,-3
2023-03-05T06:32:46.335Z,-3.07
2023-03-05T06:34:51.675Z,-3.01
2023-03-05T06:36:57.161Z,-3
2023-03-05T06:39:03.706Z,-2.99
2023-03-05T06:41:09.538Z,-2.97
2023-03-05T06:43:14.620Z,-3.01
2023-03-05T06:45:20.199Z,-3
2023-03-05T06:47:25.671Z,-2.99
2023-03-05T06:49:30.986Z,-3.02
2023-03-05T06:51:36.110Z,-3.01
2023-03-05T06:53:41.518Z,-3.02
2023-03-05T06:55:48.424Z,-3.01
2023-03-05T06:57:53.818Z,-3
2023-03-05T06:59:59.329Z,-2.97
2023-03-05T07:02:04.872Z,-2.93
2023-03-05T07:04:10.732Z,-2.85
2023-03-05T07:06:16.042Z,-2.62
2023-03-05T07:08:21.792Z,-2.53
2023-03-05T07:10:27.131Z,-2.43
2023-03-05T07:12:33.317Z,-2.32
2023-03-05T07:14:41.709Z,-2.21
2023-03-05T07:16:47.235Z,-2.12
2023-03-05T07:18:52.544Z,-1.99
2023-03-05T07:20:57.791Z,-1.93
2023-03-05T07:23:03.564Z,-1.86
2023-03-05T07:25:08.660Z,-1.77
2023-03-05T07:27:14.122Z,-1.59
2023-03-05T07:29:19.340Z,-1.3
2023-03-05T07:31:24.937Z,-0.99
2023-03-05T07:33:30.760Z,-0.65
2023-03-05T07:35:36.982Z,-0.49
2023-03-05T07:37:44.380Z,-0.34
2023-03-05T07:39:50.235Z,-0.27
2023-03-05T07:41:57.548Z,-0.33
2023-03-05T07:44:03.895Z,-0.31
2023-03-05T07:46:10.518Z,-0.15
2023-03-05T07:48:16.998Z,-0.15
2023-03-05T07:50:23.542Z,-0.13
2023-03-05T07:52:30.970Z,-0.19
2023-03-05T07:54:37.481Z,-0.12
2023-03-05T07:56:43.698Z,-0.15
2023-03-05T07:58:50.213Z,-0.06
2023-03-05T08:00:56.889Z,0.01
2023-03-05T08:03:03.283Z,0.07
2023-03-05T08:05:10.483Z,-0.04
2023-03-05T08:07:17.595Z,0.15
2023-03-05T08:09:24.099Z,0.43
2023-03-05T08:11:30.925Z,0.4
2023-03-05T08:13:37.706Z,0.46
2023-03-05T08:15:43.714Z,0.48
2023-03-05T08:17:50.177Z,0.4
2023-03-05T08:19:56.550Z,0.22
2023-03-05T08:22:03.379Z,0.18
2023-03-05T08:24:09.604Z,0.2
2023-03-05T08:26:15.835Z,0.35
2023-03-05T08:28:21.598Z,0.29
2023-03-05T08:30:27.962Z,0.39
2023-03-05T08:32:33.067Z,0.43
2023-03-05T08:34:38.690Z,0.46
2023-03-05T08:36:45.567Z,0.25
2023-03-05T08:38:52.190Z,0.46
2023-03-05T08:40:58.784Z,0.34
2023-03-05T08:43:05.547Z,0.18
2023-03-05T08:45:12.058Z,0.09
2023-03-05T08:47:18.712Z,0.04
2023-03-05T08:49:24.351Z,0.1
2023-03-05T08:51:31.197Z,0.32
2023-03-05T08:53:37.949Z,0.35
2023-03-05T08:55:44.599Z,0.35
2023-03-05T08:57:50.941Z,0.43
2023-03-05T08:59:57.241Z,0.14
2023-03-05T09:02:03.425Z,0.18
2023-03-05T09:04:10.268Z,0.25
2023-03-05T09:06:17.892Z,0.17
2023-03-05T09:08:24.888Z,0.24
2023-03-05T09:10:31.710Z,0.29
2023-03-05T09:12:38.692Z,0.3
2023-03-05T09:14:45.199Z,0.22
2023-03-05T09:16:52.071Z,0.17
2023-03-05T09:18:57.900Z,0.3
2023-03-05T09:21:03.575Z,0.35
2023-03-05T09:23:09.723Z,0.34
2023-03-05T09:25:16.423Z,0.46
2023-03-05T09:27:23.544Z,0.28
2023-03-05T09:29:30.109Z,0.31
2023-03-05T09:31:36.790Z,0.25
2023-03-05T09:33:43.344Z,0.23
2023-03-05T09:35:49.724Z,0.32
2023-03-05T09:37:56.629Z,0.18
2023-03-05T09:40:03.220Z,0.31
2023-03-05T09:42:10.748Z,0.36
2023-03-05T09:44:17.643Z,0.43
2023-03-05T09:46:24.701Z,0.42
2023-03-05T09:48:31.952Z,0.64
2023-03-05T09:50:38.707Z,0.67
2023-03-05T09:52:45.456Z,0.59
2023-03-05T09:54:51.957Z,0.62
2023-03-05T09:57:00.154Z,0.72
2023-03-05T09:59:06.637Z,0.76
2023-03-05T10:01:14.928Z,0.67
2023-03-05T10:03:22.303Z,0.69
2023-03-05T10:05:30.393Z,0.78
2023-03-05T10:07:36.898Z,0.62
2023-03-05T10:09:42.975Z,0.61
2023-03-05T10:11:49.451Z,0.74
2023-03-05T10:13:55.607Z,0.69
2023-03-05T10:16:02.890Z,0.62
2023-03-05T10:18:10.393Z,0.69
2023-03-05T10:20:16.951Z,0.66
2023-03-05T10:22:24.659Z,0.53
2023-03-05T10:24:31.809Z,0.44
2023-03-05T10:26:39.252Z,0.43
2023-03-05T10:28:46.783Z,0.48
2023-03-05T10:30:53.967Z,0.39
2023-03-05T10:33:00.629Z,0.42
2023-03-05T10:35:07.063Z,0.47
2023-03-05T10:37:14.078Z,0.5
2023-03-05T10:39:21.662Z,0.45
2023-03-05T10:41:28.333Z,0.49
2023-03-05T10:43:35.056Z,0.49
2023-03-05T10:45:44.038Z,0.55
2023-03-05T10:47:51.951Z,0.53
2023-03-05T10:49:58.980Z,0.41
2023-03-05T10:52:07.568Z,0.23
2023-03-05T10:54:14.362Z,0.28
2023-03-05T10:56:21.320Z,0.28
2023-03-05T10:58:28.261Z,0.37
2023-03-05T11:00:35.059Z,0.25
2023-03-05T11:02:41.292Z,0.22
2023-03-05T11:04:49.064Z,0.14
2023-03-05T11:06:57.046Z,0.08
2023-03-05T11:09:04.204Z,0.05
2023-03-05T11:11:11.082Z,0.07
2023-03-05T11:13:18.018Z,0.09
2023-03-05T11:15:27.059Z,0.15
2023-03-05T11:17:35.771Z,0.11
2023-03-05T11:19:44.614Z,-0.01
2023-03-05T11:21:51.686Z,-0.12
2023-03-05T11:24:01.989Z,-0.14
2023-03-05T11:26:10.863Z,-0.18
2023-03-05T11:28:30.887Z,-0.15
2023-03-05T11:30:39.637Z,-0.16
2023-03-05T11:32:48.087Z,-0.22
2023-03-05T11:34:56.692Z,-0.29
2023-03-05T11:37:06.317Z,-0.48
2023-03-05T11:39:13.282Z,-0.51
2023-03-05T11:41:20.783Z,-0.51
2023-03-05T11:43:28.443Z,-0.54
2023-03-05T11:45:36.507Z,-0.5
2023-03-05T11:47:42.964Z,-0.61
2023-03-05T11:49:50.214Z,-0.65
2023-03-05T11:51:58.566Z,-0.67
2023-03-05T11:54:06.020Z,-0.63
2023-03-05T11:56:12.202Z,-0.65
2023-03-05T11:58:21.428Z,-0.74
2023-03-05T12:00:28.641Z,-0.76
2023-03-05T12:02:35.079Z,-0.76
2023-03-05T12:04:41.856Z,-0.87
2023-03-05T12:06:49.888Z,-0.89
2023-03-05T12:08:56.210Z,-0.84
2023-03-05T12:11:04.194Z,-0.76
2023-03-05T12:13:12.320Z,-0.83
2023-03-05T12:15:22.324Z,-0.78
2023-03-05T12:17:30.162Z,-0.78
2023-03-05T12:19:37.452Z,-0.83
2023-03-05T12:21:46.915Z,-0.82
2023-03-05T12:23:54.886Z,-0.71
2023-03-05T12:26:02.194Z,-0.58
2023-03-05T12:28:10.736Z,-0.59
2023-03-05T12:30:17.335Z,-0.51
2023-03-05T12:32:29.447Z,-0.37
2023-03-05T12:34:37.966Z,-0.21
2023-03-05T12:36:46.493Z,-0.16
2023-03-05T12:38:55.619Z,-0.34
2023-03-05T12:41:02.908Z,-0.6
2023-03-05T12:43:10.844Z,-0.68
2023-03-05T12:45:18.292Z,-0.7
2023-03-05T12:47:25.175Z,-0.66
2023-03-05T12:49:35.434Z,-0.72
2023-03-05T12:51:43.978Z,-0.8
2023-03-05T12:53:51.285Z,-0.84
2023-03-05T12:55:58.929Z,-0.85
2023-03-05T12:58:08.130Z,-0.82
2023-03-05T13:00:17.744Z,-0.75
2023-03-05T13:02:25.780Z,-0.69
2023-03-05T13:04:33.056Z,-0.61
2023-03-05T13:06:45.981Z,-0.62
2023-03-05T13:08:54.701Z,-0.74
2023-03-05T13:11:01.376Z,-0.97
2023-03-05T13:13:09.260Z,-0.85
2023-03-05T13:15:18.445Z,-0.75
2023-03-05T13:17:26.420Z,-0.78
2023-03-05T13:19:35.362Z,-0.83
2023-03-05T13:21:44.011Z,-0.72
2023-03-05T13:23:54.851Z,-0.97
2023-03-05T13:26:03.860Z,-0.88
2023-03-05T13:28:11.082Z,-0.93
2023-03-05T13:30:20.585Z,-0.9
2023-03-05T13:32:27.858Z,-0.74
2023-03-05T13:34:46.989Z,-0.63
2023-03-05T13:36:56.391Z,-0.55
2023-03-05T13:39:09.098Z,-0.49
2023-03-05T13:41:18.056Z,-0.42
2023-03-05T13:43:28.059Z,-0.45
2023-03-05T13:45:36.836Z,-0.54
2023-03-05T13:47:44.143Z,-0.61
2023-03-05T13:49:53.885Z,-0.56
2023-03-05T13:52:02.578Z,-0.56
2023-03-05T13:54:11.146Z,-0.8
2023-03-05T13:56:19.973Z,-0.91
2023-03-05T13:58:29.479Z,-0.87
2023-03-05T14:00:38.805Z,-0.83
2023-03-05T14:02:46.962Z,-0.82
2023-03-05T14:04:55.820Z,-0.99
2023-03-05T14:07:03.593Z,-0.91
2023-03-05T14:09:12.668Z,-1.06
2023-03-05T14:11:23.096Z,-1
2023-03-05T14:13:32.368Z,-1.03
2023-03-05T14:15:40.649Z,-0.93
2023-03-05T14:17:48.204Z,-0.81
2023-03-05T14:19:57.655Z,-0.92
2023-03-05T14:22:06.189Z,-0.93
2023-03-05T14:24:15.332Z,-1
2023-03-05T14:26:23.826Z,-1.04
2023-03-05T14:28:37.019Z,-0.97
2023-03-05T14:30:46.262Z,-0.98
2023-03-05T14:32:56.431Z,-1.04
2023-03-05T14:35:08.933Z,-1.11
2023-03-05T14:37:18.850Z,-1.15
2023-03-05T14:39:29.913Z,-1.04
2023-03-05T14:41:40.994Z,-0.99
2023-03-05T14:43:48.475Z,-0.87
2023-03-05T14:45:58.366Z,-0.91
2023-03-05T14:48:09.499Z,-0.75
2023-03-05T14:50:22.545Z,-0.55
2023-03-05T14:52:31.687Z,-0.53
2023-03-05T14:54:41.139Z,-0.48
2023-03-05T14:56:49.894Z,-0.64
2023-03-05T14:59:11.549Z,-0.75
2023-03-05T15:01:25.603Z,-0.83
2023-03-05T15:03:38.904Z,-0.95
2023-03-05T15:05:50.003Z,-0.96
2023-03-05T15:08:03.725Z,-1.04
2023-03-05T15:10:12.719Z,-0.91
2023-03-05T15:12:23.289Z,-1.29
2023-03-05T15:14:36.090Z,-1.26
2023-03-05T15:16:45.269Z,-1.3
2023-03-05T15:18:57.188Z,-1.24
2023-03-05T15:21:06.065Z,-1.15
2023-03-05T15:23:17.416Z,-1.18
2023-03-05T15:25:33.888Z,-1.37
2023-03-05T15:27:43.215Z,-1.31
2023-03-05T15:29:54.344Z,-1.33
2023-03-05T15:32:06.274Z,-1.26
2023-03-05T15:34:18.520Z,-1.33
2023-03-05T15:36:28.839Z,-1.34
2023-03-05T15:38:40.673Z,-1.29
2023-03-05T15:40:49.704Z,-1.32
2023-03-05T15:42:59.046Z,-1.47
2023-03-05T15:45:09.283Z,-1.44
2023-03-05T15:47:19.708Z,-1.45
2023-03-05T15:49:30.319Z,-1.5
2023-03-05T15:51:42.204Z,-1.54
2023-03-05T15:53:54.600Z,-1.63
2023-03-05T15:56:05.544Z,-1.72
2023-03-05T15:58:13.547Z,-1.74
2023-03-05T16:00:25.506Z,-1.81
2023-03-05T16:02:34.914Z,-1.89
2023-03-05T16:04:44.923Z,-1.97
2023-03-05T16:06:56.234Z,-2.05
2023-03-05T16:09:03.864Z,-2.11
2023-03-05T16:11:11.910Z,-2.18
2023-03-05T16:13:22.789Z,-2.25
2023-03-05T16:15:45.382Z,-2.32
2023-03-05T16:17:57.204Z,-2.35
2023-03-05T16:20:05.342Z,-2.43
2023-03-05T16:22:15.957Z,-2.52
2023-03-05T16:24:25.401Z,-2.62
2023-03-05T16:26:35.662Z,-2.72
2023-03-05T16:28:42.700Z,-2.82
2023-03-05T16:30:54.905Z,-2.93
2023-03-05T16:33:05.349Z,-3
2023-03-05T16:35:14.174Z,-3.04
2023-03-05T16:37:24.255Z,-3.05
2023-03-05T16:39:33.483Z,-3.07
2023-03-05T16:41:47.720Z,-3.16
2023-03-05T16:43:58.463Z,-3.2
2023-03-05T16:46:08.267Z,-3.26
2023-03-05T16:48:22.665Z,-3.33
2023-03-05T16:50:31.735Z,-3.45
2023-03-05T16:52:41.227Z,-3.55
2023-03-05T16:54:53.882Z,-3.63
2023-03-05T16:57:07.376Z,-3.73
2023-03-05T16:59:15.704Z,-3.73
2023-03-05T17:01:27.068Z,-3.75
2023-03-05T17:03:37.579Z,-3.82
2023-03-05T17:05:50.979Z,-3.9
2023-03-05T17:07:59.568Z,-3.98
2023-03-05T17:10:16.554Z,-4.01
2023-03-05T17:12:28.977Z,-4.08
2023-03-05T17:14:41.720Z,-4.05
2023-03-05T17:17:04.780Z,-4.01
2023-03-05T17:19:14.323Z,-3.93
2023-03-05T17:21:28.706Z,-3.9
2023-03-05T17:23:38.165Z,-3.89
2023-03-05T17:25:48.535Z,-3.92
2023-03-05T17:27:57.434Z,-3.92
2023-03-05T17:30:06.170Z,-3.9
2023-03-05T17:32:12.926Z,-3.85
2023-03-05T17:34:27.809Z,-3.86
2023-03-05T17:36:44.961Z,-3.81
2023-03-05T17:38:55.576Z,-3.79
2023-03-05T17:41:03.571Z,-3.8
2023-03-05T17:43:12.812Z,-3.84
2023-03-05T17:45:23.208Z,-3.82
2023-03-05T17:47:35.153Z,-3.85
2023-03-05T17:49:44.842Z,-3.93
2023-03-05T17:51:57.806Z,-3.95
2023-03-05T17:54:06.972Z,-4.02
2023-03-05T17:56:19.801Z,-4.04
2023-03-05T17:58:33.375Z,-4.03
2023-03-05T18:00:44.391Z,-4.09
2023-03-05T18:02:55.757Z,-4.18
2023-03-05T18:05:05.286Z,-4.28
2023-03-05T18:07:13.783Z,-4.31
2023-03-05T18:09:35.966Z,-4.38
2023-03-05T18:11:57.612Z,-4.51
2023-03-05T18:14:07.507Z,-4.61
2023-03-05T18:16:31.601Z,-4.7
2023-03-05T18:18:41.564Z,-4.85
2023-03-05T18:20:54.214Z,-4.83
2023-03-05T18:23:06.575Z,-4.97
2023-03-05T18:25:19.831Z,-5.02
2023-03-05T18:27:30.041Z,-5.11
2023-03-05T18:29:40.333Z,-5.13
2023-03-05T18:31:47.724Z,-5.11
2023-03-05T18:34:00.987Z,-4.82
2023-03-05T18:36:11.363Z,-4.89
2023-03-05T18:38:24.216Z,-5.06
2023-03-05T18:40:32.834Z,-5.21
2023-03-05T18:42:42.242Z,-4.97
2023-03-05T18:44:49.115Z,-5.04
2023-03-05T18:46:56.724Z,-5.03
2023-03-05T18:49:04.370Z,-4.98
2023-03-05T18:51:15.287Z,-4.94
2023-03-05T18:53:28.509Z,-4.95
2023-03-05T18:55:38.840Z,-5
2023-03-05T18:57:50.369Z,-5.05
2023-03-05T19:00:01.220Z,-4.78
2023-03-05T19:02:12.933Z,-4.81
2023-03-05T19:04:25.311Z,-4.93
2023-03-05T19:06:36.413Z,-5.05
2023-03-05T19:08:47.579Z,-5.19
2023-03-05T19:11:11.628Z,-5.31
2023-03-05T19:13:23.215Z,-5.35
2023-03-05T19:15:32.538Z,-5.44
2023-03-05T19:17:44.771Z,-5.19
2023-03-05T19:19:56.099Z,-5.26
2023-03-05T19:22:08.322Z,-5.33
2023-03-05T19:24:18.470Z,-5.24
2023-03-05T19:26:30.237Z,-5.27
2023-03-05T19:28:39.810Z,-5.29
2023-03-05T19:30:51.219Z,-5.3
2023-03-05T19:33:00.518Z,-5.3
2023-03-05T19:35:15.256Z,-5.23
2023-03-05T19:37:34.897Z,-5.38
2023-03-05T19:39:51.738Z,-5.13
2023-03-05T19:42:01.762Z,-5.19
2023-03-05T19:44:10.659Z,-5
2023-03-05T19:46:26.480Z,-4.93
2023-03-05T19:48:49.891Z,-5.01
2023-03-05T19:51:03.130Z,-5.06
2023-03-05T19:53:11.183Z,-5.08
2023-03-05T19:55:21.584Z,-5.08
2023-03-05T19:57:33.727Z,-4.98
2023-03-05T19:59:49.706Z,-4.86
2023-03-05T20:02:09.699Z,-4.89
2023-03-05T20:04:28.194Z,-5.01
2023-03-05T20:06:38.588Z,-5.06
2023-03-05T20:08:46.714Z,-5.14
2023-03-05T20:10:58.912Z,-5.22
2023-03-05T20:13:11.107Z,-5.36
2023-03-05T20:15:20.778Z,-5.44
2023-03-05T20:17:32.963Z,-5.53
2023-03-05T20:19:43.030Z,-5.46
2023-03-05T20:21:57.698Z,-5.5
2023-03-05T20:24:09.844Z,-5.52
2023-03-05T20:26:21.030Z,-5.55
2023-03-05T20:28:31.317Z,-5.54
2023-03-05T20:30:39.843Z,-5.49
2023-03-05T20:32:48.097Z,-5.34
2023-03-05T20:34:59.506Z,-5.47
2023-03-05T20:37:06.814Z,-5.65
2023-03-05T20:39:13.995Z,-5.54
2023-03-05T20:41:22.153Z,-5.55
2023-03-05T20:43:32.090Z,-5.57
2023-03-05T20:45:46.026Z,-5.62
2023-03-05T20:47:54.734Z,-5.76
2023-03-05T20:50:04.747Z,-5.88
2023-03-05T20:52:12.714Z,-5.87
2023-03-05T20:54:22.349Z,-5.96
2023-03-05T20:56:32.931Z,-5.9
2023-03-05T20:58:45.301Z,-6.02
2023-03-05T21:00:57.343Z,-6.11
2023-03-05T21:03:13.401Z,-6.17
2023-03-05T21:05:23.504Z,-6.18
2023-03-05T21:07:30.576Z,-6.32
2023-03-05T21:09:41.928Z,-6.4
2023-03-05T21:11:56.354Z,-6.53
2023-03-05T21:14:05.220Z,-6.13
2023-03-05T21:16:13.853Z,-6.24
2023-03-05T21:18:21.340Z,-6.4
2023-03-05T21:20:28.863Z,-6.51
2023-03-05T21:22:36.519Z,-6.35
2023-03-05T21:24:44.265Z,-6.31
2023-03-05T21:26:51.998Z,-6.26
2023-03-05T21:28:59.850Z,-6.37
2023-03-05T21:31:07.822Z,-6.45
2023-03-05T21:33:18.629Z,-6.49
2023-03-05T21:35:26.530Z,-6.55
2023-03-05T21:37:37.923Z,-6.6
2023-03-05T21:39:44.620Z,-6.51
2023-03-05T21:41:54.633Z,-6.66
2023-03-05T21:44:04.190Z,-6.82
2023-03-05T21:46:14.163Z,-6.96
2023-03-05T21:48:20.229Z,-7.05
2023-03-05T21:50:26.622Z,-7.16
2023-03-05T21:52:32.861Z,-7.22
2023-03-05T21:54:39.680Z,-7.34
2023-03-05T21:56:46.070Z,-7.33
2023-03-05T21:58:52.127Z,-7.46
2023-03-05T22:00:58.427Z,-7.6
2023-03-05T22:03:04.099Z,-7.74
2023-03-05T22:05:09.838Z,-7.9
2023-03-05T22:07:15.037Z,-8
2023-03-05T22:09:21.156Z,-8.08
2023-03-05T22:11:27.111Z,-8.15
2023-03-05T22:13:32.543Z,-8.19
2023-03-05T22:15:38.000Z,-8.18
2023-03-05T22:17:43.756Z,-7.9
2023-03-05T22:19:49.233Z,-7.96
2023-03-05T22:21:54.478Z,-8.02
2023-03-05T22:24:00.360Z,-8.07
2023-03-05T22:26:05.965Z,-8.19
2023-03-05T22:28:11.460Z,-8.3
2023-03-05T22:30:17.221Z,-8.31
2023-03-05T22:32:22.582Z,-8.33
2023-03-05T22:34:28.444Z,-7.93
2023-03-05T22:36:33.887Z,-7.78
2023-03-05T22:38:39.692Z,-7.65
2023-03-05T22:40:45.365Z,-7.51
2023-03-05T22:42:50.682Z,-7.3
2023-03-05T22:44:55.793Z,-6.92
2023-03-05T22:47:00.963Z,-6.79
2023-03-05T22:49:06.315Z,-6.71
2023-03-05T22:51:11.984Z,-6.54
2023-03-05T22:53:17.580Z,-6.31
2023-03-05T22:55:22.805Z,-6.15
2023-03-05T22:57:28.153Z,-6.07
2023-03-05T22:59:33.527Z,-6.01
2023-03-05T23:01:38.957Z,-6
2023-03-05T23:03:47.494Z,-5.94
2023-03-05T23:05:53.209Z,-5.91
2023-03-05T23:07:58.500Z,-5.93
2023-03-05T23:10:03.895Z,-5.9
2023-03-05T23:12:09.276Z,-5.84
2023-03-05T23:14:14.950Z,-5.83
2023-03-05T23:16:20.277Z,-5.78
2023-03-05T23:18:25.655Z,-5.73
2023-03-05T23:20:30.902Z,-5.76
2023-03-05T23:22:35.947Z,-5.72
2023-03-05T23:24:41.755Z,-5.75
2023-03-05T23:26:47.540Z,-5.75
2023-03-05T23:28:52.886Z,-5.69
2023-03-05T23:30:58.712Z,-5.67
2023-03-05T23:33:05.952Z,-5.71
2023-03-05T23:35:12.299Z,-5.68
2023-03-05T23:37:18.199Z,-5.72
2023-03-05T23:39:23.559Z,-5.82
2023-03-05T23:41:30.049Z,-5.89
2023-03-05T23:43:35.270Z,-5.94
2023-03-05T23:45:40.595Z,-6.09
2023-03-05T23:47:46.120Z,-6.14
2023-03-05T23:49:51.425Z,-6.17
2023-03-05T23:51:56.593Z,-6.18
2023-03-05T23:54:01.890Z,-6.19
2023-03-05T23:56:07.177Z,-6.22
2023-03-05T23:58:12.510Z,-6.22
